AQQ10 IFIS: Internet Flight Information System
logo dgac
Lunes 20 de Septiembre del 2021
Buscar por aerodromo o helipuerto
Ingrese nombre de aeródromo, localidad o designador OACI:
METAR del 20-09-2021 a las 10:00 UTC
Para mayor información visite www.meteochile.cl
METAR SCMK 201000Z AUTO 23003KT 180V260 //// // OVC036/// 07/04 Q1030
Viento: dirección 230 grados, velocidad 3 nudos
Viento con dirección variable entre 180 y 260 grados
Nubes: Cubierto a 3600 pies sobre el nivel del aeródromo, Tipo de nubes no disponible
Temperatura: 7 °C
Rocío: 4 °C
Humedad_relativa: 81%
Presión: 1030 hPa
METAR del 20-09-2021 a las 09:00 UTC
Para mayor información visite www.meteochile.cl
METAR SCMK 200900Z AUTO 24005KT //// // OVC035/// 07/04 Q1030
Viento: dirección 240 grados, velocidad 5 nudos
Nubes: Cubierto a 3500 pies sobre el nivel del aeródromo, Tipo de nubes no disponible
Temperatura: 7 °C
Rocío: 4 °C
Humedad_relativa: 81%
Presión: 1030 hPa
METAR del 20-09-2021 a las 08:00 UTC
Para mayor información visite www.meteochile.cl
METAR SCMK 200800Z AUTO 23004KT //// // OVC038/// 06/03 Q1030
Viento: dirección 230 grados, velocidad 4 nudos
Nubes: Cubierto a 3800 pies sobre el nivel del aeródromo, Tipo de nubes no disponible
Temperatura: 6 °C
Rocío: 3 °C
Humedad_relativa: 81%
Presión: 1030 hPa
METAR del 20-09-2021 a las 07:00 UTC
Para mayor información visite www.meteochile.cl
METAR SCMK 200700Z AUTO 22004KT //// // FEW039/// 07/04 Q1030
Viento: dirección 220 grados, velocidad 4 nudos
Nubes: Escasa nubosidad a 3900 pies sobre el nivel del aeródromo, Tipo de nubes no disponible
Temperatura: 7 °C
Rocío: 4 °C
Humedad_relativa: 81%
Presión: 1030 hPa
METAR del 20-09-2021 a las 06:00 UTC
Para mayor información visite www.meteochile.cl
METAR SCMK 200600Z AUTO 23005KT //// // NCD 07/04 Q1030
Viento: dirección 230 grados, velocidad 5 nudos
Temperatura: 7 °C
Rocío: 4 °C
Humedad_relativa: 81%
Presión: 1030 hPa
METAR del 20-09-2021 a las 05:00 UTC
Para mayor información visite www.meteochile.cl
METAR SCMK 200500Z AUTO 22004KT //// // NCD 07/04 Q1030
Viento: dirección 220 grados, velocidad 4 nudos
Temperatura: 7 °C
Rocío: 4 °C
Humedad_relativa: 81%
Presión: 1030 hPa
METAR del 20-09-2021 a las 04:00 UTC
Para mayor información visite www.meteochile.cl
METAR SCMK 200400Z AUTO 23004KT //// // NCD 07/05 Q1029
Viento: dirección 230 grados, velocidad 4 nudos
Temperatura: 7 °C
Rocío: 5 °C
Humedad_relativa: 87%
Presión: 1029 hPa
METAR del 20-09-2021 a las 03:00 UTC
Para mayor información visite www.meteochile.cl
METAR SCMK 200300Z AUTO 23005KT //// // NCD 07/05 Q1029
Viento: dirección 230 grados, velocidad 5 nudos
Temperatura: 7 °C
Rocío: 5 °C
Humedad_relativa: 87%
Presión: 1029 hPa
METAR del 20-09-2021 a las 02:00 UTC
Para mayor información visite www.meteochile.cl
METAR SCMK 200200Z AUTO 24006KT //// // NCD 07/05 Q1029
Viento: dirección 240 grados, velocidad 6 nudos
Temperatura: 7 °C
Rocío: 5 °C
Humedad_relativa: 87%
Presión: 1029 hPa
METAR del 20-09-2021 a las 01:00 UTC
Para mayor información visite www.meteochile.cl
METAR SCMK 200100Z AUTO 23006KT //// // NCD 07/05 Q1029
Viento: dirección 230 grados, velocidad 6 nudos
Temperatura: 7 °C
Rocío: 5 °C
Humedad_relativa: 87%
Presión: 1029 hPa